sensor_id;sensor_type;location;lat;lon;timestamp;temperature;humidity
5118;DHT22;2578;51.622;7.046;2023-03-01T00:01:16;-2.20;1.00
5118;DHT22;2578;51.622;7.046;2023-03-01T00:03:42;-2.30;1.00
5118;DHT22;2578;51.622;7.046;2023-03-01T00:06:08;-2.20;1.00
5118;DHT22;2578;51.622;7.046;2023-03-01T00:08:34;-2.30;1.00
5118;DHT22;2578;51.622;7.046;2023-03-01T00:13:30;-2.40;1.00
5118;DHT22;2578;51.622;7.046;2023-03-01T00:15:56;-2.60;1.00
5118;DHT22;2578;51.622;7.046;2023-03-01T00:18:21;-2.90;1.00
5118;DHT22;2578;51.622;7.046;2023-03-01T00:20:54;-3.10;1.00
5118;DHT22;2578;51.622;7.046;2023-03-01T00:23:21;-3.10;1.00
5118;DHT22;2578;51.622;7.046;2023-03-01T00:25:47;-3.20;1.00
5118;DHT22;2578;51.622;7.046;2023-03-01T00:28:13;-3.30;1.00
5118;DHT22;2578;51.622;7.046;2023-03-01T00:30:38;-3.40;1.00
5118;DHT22;2578;51.622;7.046;2023-03-01T00:33:04;-3.40;1.00
5118;DHT22;2578;51.622;7.046;2023-03-01T00:35:32;-3.40;1.00
5118;DHT22;2578;51.622;7.046;2023-03-01T00:37:57;-3.40;1.00
5118;DHT22;2578;51.622;7.046;2023-03-01T00:40:32;-3.50;1.00
5118;DHT22;2578;51.622;7.046;2023-03-01T00:42:58;-3.50;1.00
5118;DHT22;2578;51.622;7.046;2023-03-01T00:45:24;-3.60;1.00
5118;DHT22;2578;51.622;7.046;2023-03-01T00:47:50;-3.60;1.00
5118;DHT22;2578;51.622;7.046;2023-03-01T00:50:16;-3.60;1.00
5118;DHT22;2578;51.622;7.046;2023-03-01T00:52:42;-3.60;1.00
5118;DHT22;2578;51.622;7.046;2023-03-01T00:55:08;-3.50;1.00
5118;DHT22;2578;51.622;7.046;2023-03-01T00:57:34;-3.60;1.00
5118;DHT22;2578;51.622;7.046;2023-03-01T00:59:59;-3.70;99.90
5118;DHT22;2578;51.622;7.046;2023-03-01T01:02:25;-3.80;1.00
5118;DHT22;2578;51.622;7.046;2023-03-01T01:04:52;-3.80;99.90
5118;DHT22;2578;51.622;7.046;2023-03-01T01:07:18;-3.90;1.00
5118;DHT22;2578;51.622;7.046;2023-03-01T01:09:45;-3.90;1.00
5118;DHT22;2578;51.622;7.046;2023-03-01T01:12:11;-3.80;99.90
5118;DHT22;2578;51.622;7.046;2023-03-01T01:14:37;-3.80;99.90
5118;DHT22;2578;51.622;7.046;2023-03-01T01:17:03;-3.70;99.90
5118;DHT22;2578;51.622;7.046;2023-03-01T01:19:29;-3.70;99.90
5118;DHT22;2578;51.622;7.046;2023-03-01T01:21:54;-3.70;99.90
5118;DHT22;2578;51.622;7.046;2023-03-01T01:24:20;-3.70;99.90
5118;DHT22;2578;51.622;7.046;2023-03-01T01:26:46;-3.90;99.90
5118;DHT22;2578;51.622;7.046;2023-03-01T01:29:12;-4.00;99.90
5118;DHT22;2578;51.622;7.046;2023-03-01T01:31:39;-4.10;99.90
5118;DHT22;2578;51.622;7.046;2023-03-01T01:34:07;-4.10;99.90
5118;DHT22;2578;51.622;7.046;2023-03-01T01:36:35;-4.00;99.90
5118;DHT22;2578;51.622;7.046;2023-03-01T01:39:01;-4.00;99.90
5118;DHT22;2578;51.622;7.046;2023-03-01T01:41:28;-3.90;99.90
5118;DHT22;2578;51.622;7.046;2023-03-01T01:51:42;-4.00;99.90
5118;DHT22;2578;51.622;7.046;2023-03-01T01:54:12;-3.90;99.90
5118;DHT22;2578;51.622;7.046;2023-03-01T01:56:42;-3.90;99.90
5118;DHT22;2578;51.622;7.046;2023-03-01T01:59:10;-3.90;99.90
5118;DHT22;2578;51.622;7.046;2023-03-01T02:01:36;-4.00;99.90
5118;DHT22;2578;51.622;7.046;2023-03-01T02:04:02;-4.20;99.90
5118;DHT22;2578;51.622;7.046;2023-03-01T02:06:39;-4.40;99.90
5118;DHT22;2578;51.622;7.046;2023-03-01T02:09:12;-4.50;99.90
5118;DHT22;2578;51.622;7.046;2023-03-01T02:11:39;-4.50;99.90
5118;DHT22;2578;51.622;7.046;2023-03-01T02:14:04;-4.60;99.90
5118;DHT22;2578;51.622;7.046;2023-03-01T02:16:31;-4.60;99.90
5118;DHT22;2578;51.622;7.046;2023-03-01T02:18:57;-4.60;99.90
5118;DHT22;2578;51.622;7.046;2023-03-01T02:24:22;-4.50;99.90
5118;DHT22;2578;51.622;7.046;2023-03-01T02:26:54;-4.60;99.90
5118;DHT22;2578;51.622;7.046;2023-03-01T02:29:24;-4.60;99.90
5118;DHT22;2578;51.622;7.046;2023-03-01T02:31:52;-4.60;99.90
5118;DHT22;2578;51.622;7.046;2023-03-01T02:34:22;-4.60;99.90
5118;DHT22;2578;51.622;7.046;2023-03-01T02:36:51;-4.70;99.90
5118;DHT22;2578;51.622;7.046;2023-03-01T02:39:25;-4.70;99.90
5118;DHT22;2578;51.622;7.046;2023-03-01T02:41:53;-4.70;99.90
5118;DHT22;2578;51.622;7.046;2023-03-01T02:44:20;-4.60;99.90
5118;DHT22;2578;51.622;7.046;2023-03-01T02:46:51;-4.70;99.90
5118;DHT22;2578;51.622;7.046;2023-03-01T02:49:30;-4.70;99.90
5118;DHT22;2578;51.622;7.046;2023-03-01T02:54:54;-4.90;99.90
5118;DHT22;2578;51.622;7.046;2023-03-01T02:57:22;-4.80;99.90
5118;DHT22;2578;51.622;7.046;2023-03-01T02:59:48;-4.70;99.90
5118;DHT22;2578;51.622;7.046;2023-03-01T03:07:35;-4.70;99.90
5118;DHT22;2578;51.622;7.046;2023-03-01T03:10:03;-4.80;99.90
5118;DHT22;2578;51.622;7.046;2023-03-01T03:12:29;-4.80;99.90
5118;DHT22;2578;51.622;7.046;2023-03-01T03:14:54;-4.90;99.90
5118;DHT22;2578;51.622;7.046;2023-03-01T03:17:20;-5.00;99.90
5118;DHT22;2578;51.622;7.046;2023-03-01T03:19:45;-5.00;99.90
5118;DHT22;2578;51.622;7.046;2023-03-01T03:22:12;-5.00;99.90
5118;DHT22;2578;51.622;7.046;2023-03-01T03:24:38;-5.00;99.90
5118;DHT22;2578;51.622;7.046;2023-03-01T03:27:04;-4.90;99.90
5118;DHT22;2578;51.622;7.046;2023-03-01T03:29:30;-4.80;99.90
5118;DHT22;2578;51.622;7.046;2023-03-01T03:31:56;-4.80;99.90
5118;DHT22;2578;51.622;7.046;2023-03-01T03:34:22;-4.70;99.90
5118;DHT22;2578;51.622;7.046;2023-03-01T03:36:53;-4.70;99.90
5118;DHT22;2578;51.622;7.046;2023-03-01T03:39:22;-4.70;99.90
5118;DHT22;2578;51.622;7.046;2023-03-01T03:41:48;-4.70;99.90
5118;DHT22;2578;51.622;7.046;2023-03-01T03:44:14;-4.80;99.90
5118;DHT22;2578;51.622;7.046;2023-03-01T03:46:39;-4.70;99.90
5118;DHT22;2578;51.622;7.046;2023-03-01T03:49:05;-4.80;99.90
5118;DHT22;2578;51.622;7.046;2023-03-01T03:51:31;-4.70;99.90
5118;DHT22;2578;51.622;7.046;2023-03-01T03:53:56;-4.80;99.90
5118;DHT22;2578;51.622;7.046;2023-03-01T03:56:22;-4.80;99.90
5118;DHT22;2578;51.622;7.046;2023-03-01T03:58:53;-4.80;99.90
5118;DHT22;2578;51.622;7.046;2023-03-01T04:01:19;-4.80;99.90
5118;DHT22;2578;51.622;7.046;2023-03-01T04:03:45;-4.10;99.90
5118;DHT22;2578;51.622;7.046;2023-03-01T04:06:13;-4.90;99.90
5118;DHT22;2578;51.622;7.046;2023-03-01T04:08:39;-4.90;99.90
5118;DHT22;2578;51.622;7.046;2023-03-01T04:11:06;-4.90;99.90
5118;DHT22;2578;51.622;7.046;2023-03-01T04:13:52;-4.90;99.90
5118;DHT22;2578;51.622;7.046;2023-03-01T04:16:18;-4.90;99.90
5118;DHT22;2578;51.622;7.046;2023-03-01T04:18:44;-4.90;99.90
5118;DHT22;2578;51.622;7.046;2023-03-01T04:21:10;-5.00;99.90
5118;DHT22;2578;51.622;7.046;2023-03-01T04:23:37;-5.00;99.90
5118;DHT22;2578;51.622;7.046;2023-03-01T04:26:03;-5.00;99.90
5118;DHT22;2578;51.622;7.046;2023-03-01T04:28:34;-5.20;99.90
5118;DHT22;2578;51.622;7.046;2023-03-01T04:31:07;-5.20;99.90
5118;DHT22;2578;51.622;7.046;2023-03-01T04:33:53;-4.70;99.90
5118;DHT22;2578;51.622;7.046;2023-03-01T04:36:21;-5.30;99.90
5118;DHT22;2578;51.622;7.046;2023-03-01T04:38:47;-5.20;99.90
5118;DHT22;2578;51.622;7.046;2023-03-01T04:41:15;-5.20;99.90
5118;DHT22;2578;51.622;7.046;2023-03-01T04:43:41;-5.20;99.90
5118;DHT22;2578;51.622;7.046;2023-03-01T04:46:11;-5.10;99.90
5118;DHT22;2578;51.622;7.046;2023-03-01T04:48:39;-5.30;99.90
5118;DHT22;2578;51.622;7.046;2023-03-01T04:51:05;-6.40;99.90
5118;DHT22;2578;51.622;7.046;2023-03-01T04:53:32;-5.40;99.90
5118;DHT22;2578;51.622;7.046;2023-03-01T04:55:58;-5.40;99.90
5118;DHT22;2578;51.622;7.046;2023-03-01T04:58:25;-5.40;99.90
5118;DHT22;2578;51.622;7.046;2023-03-01T05:00:51;-5.30;99.90
5118;DHT22;2578;51.622;7.046;2023-03-01T05:03:18;-5.50;99.90
5118;DHT22;2578;51.622;7.046;2023-03-01T05:05:45;-5.50;99.90
5118;DHT22;2578;51.622;7.046;2023-03-01T05:08:11;-5.50;99.90
5118;DHT22;2578;51.622;7.046;2023-03-01T05:10:43;-5.40;99.90
5118;DHT22;2578;51.622;7.046;2023-03-01T05:13:09;-5.50;99.90
5118;DHT22;2578;51.622;7.046;2023-03-01T05:15:34;-5.50;99.90
5118;DHT22;2578;51.622;7.046;2023-03-01T05:18:02;-5.40;99.90
5118;DHT22;2578;51.622;7.046;2023-03-01T05:20:29;-5.30;99.90
5118;DHT22;2578;51.622;7.046;2023-03-01T05:22:57;-5.30;99.90
5118;DHT22;2578;51.622;7.046;2023-03-01T05:25:24;-5.30;99.90
5118;DHT22;2578;51.622;7.046;2023-03-01T05:27:50;-5.50;99.90
5118;DHT22;2578;51.622;7.046;2023-03-01T05:30:16;-5.50;99.90
5118;DHT22;2578;51.622;7.046;2023-03-01T05:32:44;-5.50;99.90
5118;DHT22;2578;51.622;7.046;2023-03-01T05:35:11;-5.60;99.90
5118;DHT22;2578;51.622;7.046;2023-03-01T05:37:40;-6.10;99.90
5118;DHT22;2578;51.622;7.046;2023-03-01T05:40:07;-5.50;99.90
5118;DHT22;2578;51.622;7.046;2023-03-01T05:42:44;-5.50;99.90
5118;DHT22;2578;51.622;7.046;2023-03-01T05:45:11;-5.50;99.90
5118;DHT22;2578;51.622;7.046;2023-03-01T05:47:39;-5.50;99.90
5118;DHT22;2578;51.622;7.046;2023-03-01T05:50:13;-5.60;99.90
5118;DHT22;2578;51.622;7.046;2023-03-01T05:52:39;-5.60;99.90
5118;DHT22;2578;51.622;7.046;2023-03-01T05:55:05;-5.60;99.90
5118;DHT22;2578;51.622;7.046;2023-03-01T05:57:31;-5.50;99.90
5118;DHT22;2578;51.622;7.046;2023-03-01T05:59:57;-5.50;99.90
5118;DHT22;2578;51.622;7.046;2023-03-01T06:02:22;-5.50;99.90
5118;DHT22;2578;51.622;7.046;2023-03-01T06:04:48;-5.40;99.90
5118;DHT22;2578;51.622;7.046;2023-03-01T06:07:14;-5.40;99.90
5118;DHT22;2578;51.622;7.046;2023-03-01T06:09:39;-5.40;99.90
5118;DHT22;2578;51.622;7.046;2023-03-01T06:12:05;-5.40;99.90
5118;DHT22;2578;51.622;7.046;2023-03-01T06:14:31;-5.30;99.90
5118;DHT22;2578;51.622;7.046;2023-03-01T06:16:57;-5.20;99.90
5118;DHT22;2578;51.622;7.046;2023-03-01T06:21:49;-5.00;99.90
5118;DHT22;2578;51.622;7.046;2023-03-01T06:24:15;-5.00;99.90
5118;DHT22;2578;51.622;7.046;2023-03-01T06:26:40;-5.00;99.90
5118;DHT22;2578;51.622;7.046;2023-03-01T06:29:07;-5.10;99.90
5118;DHT22;2578;51.622;7.046;2023-03-01T06:31:34;-5.10;99.90
5118;DHT22;2578;51.622;7.046;2023-03-01T06:33:59;-5.10;99.90
5118;DHT22;2578;51.622;7.046;2023-03-01T06:36:25;-5.20;99.90
5118;DHT22;2578;51.622;7.046;2023-03-01T06:38:50;-5.20;99.90
5118;DHT22;2578;51.622;7.046;2023-03-01T06:41:16;-5.00;99.90
5118;DHT22;2578;51.622;7.046;2023-03-01T06:43:42;-4.90;99.90
5118;DHT22;2578;51.622;7.046;2023-03-01T06:46:07;-4.70;99.90
5118;DHT22;2578;51.622;7.046;2023-03-01T06:48:33;-4.50;99.90
5118;DHT22;2578;51.622;7.046;2023-03-01T06:51:00;-4.00;99.90
5118;DHT22;2578;51.622;7.046;2023-03-01T06:53:27;-3.70;99.90
5118;DHT22;2578;51.622;7.046;2023-03-01T06:55:56;-3.70;99.90
5118;DHT22;2578;51.622;7.046;2023-03-01T06:58:23;-3.40;99.90
5118;DHT22;2578;51.622;7.046;2023-03-01T07:00:48;-3.30;99.90
5118;DHT22;2578;51.622;7.046;2023-03-01T07:03:14;-2.80;99.90
5118;DHT22;2578;51.622;7.046;2023-03-01T07:05:40;-2.70;99.90
5118;DHT22;2578;51.622;7.046;2023-03-01T07:08:05;-2.40;99.90
5118;DHT22;2578;51.622;7.046;2023-03-01T07:10:31;-1.90;99.90
5118;DHT22;2578;51.622;7.046;2023-03-01T07:12:57;-1.90;99.90
5118;DHT22;2578;51.622;7.046;2023-03-01T07:15:24;-1.50;99.90
5118;DHT22;2578;51.622;7.046;2023-03-01T07:17:50;-1.30;99.90
5118;DHT22;2578;51.622;7.046;2023-03-01T07:20:17;-1.10;99.90
5118;DHT22;2578;51.622;7.046;2023-03-01T07:22:43;-0.80;99.90
5118;DHT22;2578;51.622;7.046;2023-03-01T07:25:09;-0.60;99.90
5118;DHT22;2578;51.622;7.046;2023-03-01T07:27:35;-0.10;99.90
5118;DHT22;2578;51.622;7.046;2023-03-01T07:30:01;-0.10;99.90
5118;DHT22;2578;51.622;7.046;2023-03-01T07:32:26;0.20;99.90
5118;DHT22;2578;51.622;7.046;2023-03-01T07:34:52;0.40;99.90
5118;DHT22;2578;51.622;7.046;2023-03-01T07:37:18;0.70;99.90
5118;DHT22;2578;51.622;7.046;2023-03-01T07:39:43;1.00;99.90
5118;DHT22;2578;51.622;7.046;2023-03-01T07:42:09;1.30;99.90
5118;DHT22;2578;51.622;7.046;2023-03-01T07:44:34;1.50;99.90
5118;DHT22;2578;51.622;7.046;2023-03-01T07:47:00;1.50;99.90
5118;DHT22;2578;51.622;7.046;2023-03-01T07:49:26;1.50;99.90
5118;DHT22;2578;51.622;7.046;2023-03-01T07:51:52;1.50;99.90
5118;DHT22;2578;51.622;7.046;2023-03-01T07:54:18;1.50;99.90
5118;DHT22;2578;51.622;7.046;2023-03-01T07:56:44;1.70;99.90
5118;DHT22;2578;51.622;7.046;2023-03-01T07:59:09;2.00;99.90
5118;DHT22;2578;51.622;7.046;2023-03-01T08:01:35;2.00;99.90
5118;DHT22;2578;51.622;7.046;2023-03-01T08:04:00;2.20;99.90
5118;DHT22;2578;51.622;7.046;2023-03-01T08:06:27;2.30;99.90
5118;DHT22;2578;51.622;7.046;2023-03-01T08:08:53;2.40;99.90
5118;DHT22;2578;51.622;7.046;2023-03-01T08:11:20;2.80;99.90
5118;DHT22;2578;51.622;7.046;2023-03-01T08:13:47;3.30;99.90
5118;DHT22;2578;51.622;7.046;2023-03-01T08:16:15;3.70;99.90
5118;DHT22;2578;51.622;7.046;2023-03-01T08:18:41;4.10;99.90
5118;DHT22;2578;51.622;7.046;2023-03-01T08:21:13;4.40;95.20
5118;DHT22;2578;51.622;7.046;2023-03-01T08:23:40;4.40;97.20
5118;DHT22;2578;51.622;7.046;2023-03-01T08:26:11;4.50;64.90
5118;DHT22;2578;51.622;7.046;2023-03-01T08:28:37;4.30;79.40
5118;DHT22;2578;51.622;7.046;2023-03-01T08:31:25;4.70;92.70
5118;DHT22;2578;51.622;7.046;2023-03-01T08:33:54;4.80;37.60
5118;DHT22;2578;51.622;7.046;2023-03-01T08:36:32;4.90;64.90
5118;DHT22;2578;51.622;7.046;2023-03-01T08:38:58;4.80;43.20
5118;DHT22;2578;51.622;7.046;2023-03-01T08:41:24;4.50;47.60
5118;DHT22;2578;51.622;7.046;2023-03-01T08:43:50;4.30;96.20
5118;DHT22;2578;51.622;7.046;2023-03-01T08:46:16;4.50;91.60
5118;DHT22;2578;51.622;7.046;2023-03-01T08:48:42;4.60;94.90
5118;DHT22;2578;51.622;7.046;2023-03-01T08:51:13;4.80;91.80
5118;DHT22;2578;51.622;7.046;2023-03-01T08:53:39;4.80;61.20
5118;DHT22;2578;51.622;7.046;2023-03-01T08:56:05;5.10;64.70
5118;DHT22;2578;51.622;7.046;2023-03-01T08:58:31;5.40;62.50
5118;DHT22;2578;51.622;7.046;2023-03-01T09:00:57;5.80;28.50
5118;DHT22;2578;51.622;7.046;2023-03-01T09:03:24;5.80;9.40
5118;DHT22;2578;51.622;7.046;2023-03-01T09:05:51;5.60;19.20
5118;DHT22;2578;51.622;7.046;2023-03-01T09:08:17;5.70;27.80
5118;DHT22;2578;51.622;7.046;2023-03-01T09:10:43;6.00;18.50
5118;DHT22;2578;51.622;7.046;2023-03-01T09:13:08;5.90;19.10
5118;DHT22;2578;51.622;7.046;2023-03-01T09:15:36;6.20;11.00
5118;DHT22;2578;51.622;7.046;2023-03-01T09:18:02;6.20;1.50
5118;DHT22;2578;51.622;7.046;2023-03-01T09:20:28;5.90;6.90
5118;DHT22;2578;51.622;7.046;2023-03-01T09:22:53;5.90;7.70
5118;DHT22;2578;51.622;7.046;2023-03-01T09:25:19;5.40;19.90
5118;DHT22;2578;51.622;7.046;2023-03-01T09:27:44;5.60;19.00
5118;DHT22;2578;51.622;7.046;2023-03-01T09:30:10;5.70;19.30
5118;DHT22;2578;51.622;7.046;2023-03-01T09:32:36;5.70;9.60
5118;DHT22;2578;51.622;7.046;2023-03-01T09:35:02;5.50;6.80
5118;DHT22;2578;51.622;7.046;2023-03-01T09:37:32;6.00;11.30
5118;DHT22;2578;51.622;7.046;2023-03-01T09:39:57;6.50;1.00
5118;DHT22;2578;51.622;7.046;2023-03-01T09:42:24;6.50;1.00
5118;DHT22;2578;51.622;7.046;2023-03-01T09:47:52;6.80;1.00
5118;DHT22;2578;51.622;7.046;2023-03-01T09:50:20;7.60;1.00
5118;DHT22;2578;51.622;7.046;2023-03-01T09:53:21;6.80;1.00
5118;DHT22;2578;51.622;7.046;2023-03-01T09:58:44;7.70;1.00
5118;DHT22;2578;51.622;7.046;2023-03-01T10:01:31;7.30;1.00
5118;DHT22;2578;51.622;7.046;2023-03-01T10:07:21;7.00;1.00
5118;DHT22;2578;51.622;7.046;2023-03-01T10:09:51;7.50;1.00
5118;DHT22;2578;51.622;7.046;2023-03-01T10:12:23;7.50;1.00
5118;DHT22;2578;51.622;7.046;2023-03-01T10:18:26;7.40;1.00
5118;DHT22;2578;51.622;7.046;2023-03-01T10:21:01;6.80;1.00
5118;DHT22;2578;51.622;7.046;2023-03-01T10:23:30;6.80;1.00
5118;DHT22;2578;51.622;7.046;2023-03-01T10:31:22;7.90;1.00
5118;DHT22;2578;51.622;7.046;2023-03-01T10:33:48;8.00;1.00
5118;DHT22;2578;51.622;7.046;2023-03-01T10:36:18;8.20;1.00
5118;DHT22;2578;51.622;7.046;2023-03-01T10:38:52;7.90;1.00
5118;DHT22;2578;51.622;7.046;2023-03-01T10:41:20;7.60;1.00
5118;DHT22;2578;51.622;7.046;2023-03-01T10:43:55;7.80;1.00
5118;DHT22;2578;51.622;7.046;2023-03-01T10:46:30;7.70;1.00
5118;DHT22;2578;51.622;7.046;2023-03-01T10:49:17;8.10;1.00
5118;DHT22;2578;51.622;7.046;2023-03-01T10:51:45;7.90;1.00
5118;DHT22;2578;51.622;7.046;2023-03-01T10:54:29;8.40;1.00
5118;DHT22;2578;51.622;7.046;2023-03-01T10:56:57;9.00;1.00
5118;DHT22;2578;51.622;7.046;2023-03-01T11:02:16;8.70;1.00
5118;DHT22;2578;51.622;7.046;2023-03-01T11:05:21;9.10;1.00
5118;DHT22;2578;51.622;7.046;2023-03-01T11:07:54;9.60;1.00
5118;DHT22;2578;51.622;7.046;2023-03-01T11:10:38;10.10;1.00
5118;DHT22;2578;51.622;7.046;2023-03-01T11:13:13;10.10;1.00
5118;DHT22;2578;51.622;7.046;2023-03-01T11:15:40;9.90;1.00
5118;DHT22;2578;51.622;7.046;2023-03-01T11:18:21;10.10;1.00
5118;DHT22;2578;51.622;7.046;2023-03-01T11:20:48;10.00;1.00
5118;DHT22;2578;51.622;7.046;2023-03-01T11:23:17;10.90;1.00
5118;DHT22;2578;51.622;7.046;2023-03-01T11:25:58;10.20;1.00
5118;DHT22;2578;51.622;7.046;2023-03-01T11:28:26;10.60;1.00
5118;DHT22;2578;51.622;7.046;2023-03-01T11:31:08;10.70;1.00
5118;DHT22;2578;51.622;7.046;2023-03-01T11:33:41;10.70;1.00
5118;DHT22;2578;51.622;7.046;2023-03-01T11:38:47;10.00;1.00
5118;DHT22;2578;51.622;7.046;2023-03-01T11:41:16;10.40;1.00
5118;DHT22;2578;51.622;7.046;2023-03-01T11:43:53;10.70;1.00
5118;DHT22;2578;51.622;7.046;2023-03-01T11:54:36;9.90;1.00
5118;DHT22;2578;51.622;7.046;2023-03-01T12:16:34;11.30;1.00
5118;DHT22;2578;51.622;7.046;2023-03-01T12:19:21;11.80;1.00
5118;DHT22;2578;51.622;7.046;2023-03-01T12:30:15;11.00;1.00
5118;DHT22;2578;51.622;7.046;2023-03-01T12:32:57;10.50;1.00
5118;DHT22;2578;51.622;7.046;2023-03-01T12:44:28;11.30;1.00
5118;DHT22;2578;51.622;7.046;2023-03-01T12:50:17;12.30;1.00
5118;DHT22;2578;51.622;7.046;2023-03-01T12:52:55;12.30;1.00
5118;DHT22;2578;51.622;7.046;2023-03-01T12:55:33;12.40;1.00
5118;DHT22;2578;51.622;7.046;2023-03-01T12:58:39;12.60;1.00
5118;DHT22;2578;51.622;7.046;2023-03-01T13:06:41;12.80;1.00
5118;DHT22;2578;51.622;7.046;2023-03-01T13:09:23;12.30;1.00
5118;DHT22;2578;51.622;7.046;2023-03-01T13:11:51;11.90;1.00
5118;DHT22;2578;51.622;7.046;2023-03-01T13:16:52;12.60;1.00
5118;DHT22;2578;51.622;7.046;2023-03-01T13:19:26;13.10;1.00
5118;DHT22;2578;51.622;7.046;2023-03-01T13:21:53;13.10;1.00
5118;DHT22;2578;51.622;7.046;2023-03-01T13:24:43;13.10;1.00
5118;DHT22;2578;51.622;7.046;2023-03-01T13:29:50;12.80;1.00
5118;DHT22;2578;51.622;7.046;2023-03-01T13:32:36;13.00;1.00
5118;DHT22;2578;51.622;7.046;2023-03-01T13:37:43;12.30;1.00
5118;DHT22;2578;51.622;7.046;2023-03-01T13:42:44;12.10;1.00
5118;DHT22;2578;51.622;7.046;2023-03-01T13:45:41;12.40;1.00
5118;DHT22;2578;51.622;7.046;2023-03-01T13:48:36;13.20;1.00
5118;DHT22;2578;51.622;7.046;2023-03-01T13:51:28;12.30;1.00
5118;DHT22;2578;51.622;7.046;2023-03-01T13:53:55;12.10;1.00
5118;DHT22;2578;51.622;7.046;2023-03-01T13:56:36;11.80;1.00
5118;DHT22;2578;51.622;7.046;2023-03-01T13:59:15;12.00;1.00
5118;DHT22;2578;51.622;7.046;2023-03-01T14:01:40;11.90;1.00
5118;DHT22;2578;51.622;7.046;2023-03-01T14:04:23;11.90;1.00
5118;DHT22;2578;51.622;7.046;2023-03-01T14:06:49;12.20;1.00
5118;DHT22;2578;51.622;7.046;2023-03-01T14:09:27;12.30;1.00
5118;DHT22;2578;51.622;7.046;2023-03-01T14:12:02;12.10;1.00
5118;DHT22;2578;51.622;7.046;2023-03-01T14:19:58;12.40;1.00
5118;DHT22;2578;51.622;7.046;2023-03-01T14:22:27;11.50;1.00
5118;DHT22;2578;51.622;7.046;2023-03-01T14:25:02;11.30;1.00
5118;DHT22;2578;51.622;7.046;2023-03-01T14:27:38;11.50;1.00
5118;DHT22;2578;51.622;7.046;2023-03-01T14:30:19;10.80;1.00
5118;DHT22;2578;51.622;7.046;2023-03-01T14:32:58;10.40;1.00
5118;DHT22;2578;51.622;7.046;2023-03-01T14:35:29;10.30;1.00
5118;DHT22;2578;51.622;7.046;2023-03-01T14:37:55;10.10;1.00
5118;DHT22;2578;51.622;7.046;2023-03-01T14:42:48;9.70;1.00
5118;DHT22;2578;51.622;7.046;2023-03-01T14:45:14;9.90;1.00
5118;DHT22;2578;51.622;7.046;2023-03-01T14:47:40;9.40;1.00
5118;DHT22;2578;51.622;7.046;2023-03-01T14:50:28;10.60;1.00
5118;DHT22;2578;51.622;7.046;2023-03-01T14:52:59;10.20;1.00
5118;DHT22;2578;51.622;7.046;2023-03-01T14:55:38;10.60;1.00
5118;DHT22;2578;51.622;7.046;2023-03-01T14:58:11;10.90;1.00
5118;DHT22;2578;51.622;7.046;2023-03-01T15:00:37;10.70;1.00
5118;DHT22;2578;51.622;7.046;2023-03-01T15:03:11;10.60;1.00
5118;DHT22;2578;51.622;7.046;2023-03-01T15:05:39;10.00;1.00
5118;DHT22;2578;51.622;7.046;2023-03-01T15:08:06;9.70;1.00
5118;DHT22;2578;51.622;7.046;2023-03-01T15:10:36;10.10;1.00
5118;DHT22;2578;51.622;7.046;2023-03-01T15:13:22;10.10;1.00
5118;DHT22;2578;51.622;7.046;2023-03-01T15:15:49;10.30;1.00
5118;DHT22;2578;51.622;7.046;2023-03-01T15:18:28;10.60;1.00
5118;DHT22;2578;51.622;7.046;2023-03-01T15:20:54;10.60;1.00
5118;DHT22;2578;51.622;7.046;2023-03-01T15:23:24;10.60;1.00
5118;DHT22;2578;51.622;7.046;2023-03-01T15:25:51;10.60;1.00
5118;DHT22;2578;51.622;7.046;2023-03-01T15:28:23;10.50;1.00
5118;DHT22;2578;51.622;7.046;2023-03-01T15:30:59;9.40;1.00
5118;DHT22;2578;51.622;7.046;2023-03-01T15:35:53;9.20;1.00
5118;DHT22;2578;51.622;7.046;2023-03-01T15:38:49;8.80;1.00
5118;DHT22;2578;51.622;7.046;2023-03-01T15:41:27;8.80;1.00
5118;DHT22;2578;51.622;7.046;2023-03-01T15:43:53;8.80;1.00
5118;DHT22;2578;51.622;7.046;2023-03-01T15:48:57;8.70;1.00
5118;DHT22;2578;51.622;7.046;2023-03-01T15:51:32;8.90;1.00
5118;DHT22;2578;51.622;7.046;2023-03-01T15:54:00;8.80;1.00
5118;DHT22;2578;51.622;7.046;2023-03-01T15:56:26;8.40;1.00
5118;DHT22;2578;51.622;7.046;2023-03-01T15:58:52;8.20;1.00
5118;DHT22;2578;51.622;7.046;2023-03-01T16:01:17;8.20;1.00
5118;DHT22;2578;51.622;7.046;2023-03-01T16:03:44;8.20;1.00
5118;DHT22;2578;51.622;7.046;2023-03-01T16:06:10;8.60;1.00
5118;DHT22;2578;51.622;7.046;2023-03-01T16:08:37;7.70;1.00
5118;DHT22;2578;51.622;7.046;2023-03-01T16:11:04;7.60;1.00
5118;DHT22;2578;51.622;7.046;2023-03-01T16:13:34;7.60;1.00
5118;DHT22;2578;51.622;7.046;2023-03-01T16:15:59;7.60;1.00
5118;DHT22;2578;51.622;7.046;2023-03-01T16:18:25;8.40;1.00
5118;DHT22;2578;51.622;7.046;2023-03-01T16:20:51;7.90;1.00
5118;DHT22;2578;51.622;7.046;2023-03-01T16:23:18;7.80;1.00
5118;DHT22;2578;51.622;7.046;2023-03-01T16:25:43;7.50;1.00
5118;DHT22;2578;51.622;7.046;2023-03-01T16:28:09;7.40;1.00
5118;DHT22;2578;51.622;7.046;2023-03-01T16:30:36;7.10;1.00
5118;DHT22;2578;51.622;7.046;2023-03-01T16:33:02;7.00;1.00
5118;DHT22;2578;51.622;7.046;2023-03-01T16:35:32;7.00;1.00
5118;DHT22;2578;51.622;7.046;2023-03-01T16:37:59;6.90;1.00
5118;DHT22;2578;51.622;7.046;2023-03-01T16:42:53;6.60;1.00
5118;DHT22;2578;51.622;7.046;2023-03-01T16:45:19;6.60;1.00
5118;DHT22;2578;51.622;7.046;2023-03-01T16:47:45;6.60;1.00
5118;DHT22;2578;51.622;7.046;2023-03-01T16:50:16;6.40;1.00
5118;DHT22;2578;51.622;7.046;2023-03-01T16:52:42;6.30;1.00
5118;DHT22;2578;51.622;7.046;2023-03-01T16:55:08;6.10;1.00
5118;DHT22;2578;51.622;7.046;2023-03-01T16:57:35;5.90;1.00
5118;DHT22;2578;51.622;7.046;2023-03-01T17:00:01;4.90;1.00
5118;DHT22;2578;51.622;7.046;2023-03-01T17:02:34;5.70;1.00
5118;DHT22;2578;51.622;7.046;2023-03-01T17:05:00;5.60;1.00
5118;DHT22;2578;51.622;7.046;2023-03-01T17:07:25;5.40;1.00
5118;DHT22;2578;51.622;7.046;2023-03-01T17:09:51;5.40;1.00
5118;DHT22;2578;51.622;7.046;2023-03-01T17:12:17;5.10;1.00
5118;DHT22;2578;51.622;7.046;2023-03-01T17:14:42;5.00;1.00
5118;DHT22;2578;51.622;7.046;2023-03-01T17:17:09;4.80;1.00
5118;DHT22;2578;51.622;7.046;2023-03-01T17:19:35;4.70;1.00
5118;DHT22;2578;51.622;7.046;2023-03-01T17:22:05;3.60;1.00
5118;DHT22;2578;51.622;7.046;2023-03-01T17:24:36;4.50;1.00
5118;DHT22;2578;51.622;7.046;2023-03-01T17:27:02;5.40;1.00
5118;DHT22;2578;51.622;7.046;2023-03-01T17:29:27;4.60;1.00
5118;DHT22;2578;51.622;7.046;2023-03-01T17:31:53;4.10;1.00
5118;DHT22;2578;51.622;7.046;2023-03-01T17:34:21;4.10;1.00
5118;DHT22;2578;51.622;7.046;2023-03-01T17:36:47;3.90;1.00
5118;DHT22;2578;51.622;7.046;2023-03-01T17:39:15;3.90;7.10
5118;DHT22;2578;51.622;7.046;2023-03-01T17:41:42;3.80;11.10
5118;DHT22;2578;51.622;7.046;2023-03-01T17:44:08;3.70;10.30
5118;DHT22;2578;51.622;7.046;2023-03-01T17:46:34;3.60;12.60
5118;DHT22;2578;51.622;7.046;2023-03-01T17:51:25;3.60;19.50
5118;DHT22;2578;51.622;7.046;2023-03-01T17:53:51;3.60;17.90
5118;DHT22;2578;51.622;7.046;2023-03-01T17:56:17;3.60;16.60
5118;DHT22;2578;51.622;7.046;2023-03-01T18:01:12;3.40;30.20
5118;DHT22;2578;51.622;7.046;2023-03-01T18:03:39;3.40;36.00
5118;DHT22;2578;51.622;7.046;2023-03-01T18:06:25;3.30;36.40
5118;DHT22;2578;51.622;7.046;2023-03-01T18:08:51;3.30;37.20
5118;DHT22;2578;51.622;7.046;2023-03-01T18:11:20;3.20;35.00
5118;DHT22;2578;51.622;7.046;2023-03-01T18:13:46;3.30;28.40
5118;DHT22;2578;51.622;7.046;2023-03-01T18:16:16;3.30;27.50
5118;DHT22;2578;51.622;7.046;2023-03-01T18:18:42;3.50;24.30
5118;DHT22;2578;51.622;7.046;2023-03-01T18:21:09;3.40;18.90
5118;DHT22;2578;51.622;7.046;2023-03-01T18:23:35;3.30;22.00
5118;DHT22;2578;51.622;7.046;2023-03-01T18:26:04;3.20;31.70
5118;DHT22;2578;51.622;7.046;2023-03-01T18:28:31;3.20;42.90
5118;DHT22;2578;51.622;7.046;2023-03-01T18:31:02;3.20;52.50
5118;DHT22;2578;51.622;7.046;2023-03-01T18:33:29;3.10;56.30
5118;DHT22;2578;51.622;7.046;2023-03-01T18:35:55;3.00;55.50
5118;DHT22;2578;51.622;7.046;2023-03-01T18:38:21;2.90;64.00